Time;durP1;ratioP1;P1;durP2;ratioP2;P2;SDS_P1;SDS_P2;PMS_P1;PMS_P2;Temp;Humidity;BMP_temperature;BMP_pressure;BME280_temperature;BME280_humidity;BME280_pressure;Samples;Min_cycle;Max_cycle;Signal;HPM_P1;HPM_P2
2022/01/03 00:00:47;;;;;;;1.70;1.30;;;11.50;99.90;;;;;;5091465;28;20230;-87
2022/01/03 00:03:16;;;;;;;1.63;1.52;;;11.50;99.90;;;;;;5092060;28;20224;-87
2022/01/03 00:05:45;;;;;;;2.40;1.70;;;11.60;99.90;;;;;;5091977;28;20265;-87
2022/01/03 00:08:17;;;;;;;1.88;1.77;;;11.70;99.90;;;;;;5091910;28;20208;-82
2022/01/03 00:10:45;;;;;;;1.73;1.60;;;11.80;99.90;;;;;;5091108;28;20208;-82
2022/01/03 00:13:14;;;;;;;1.58;1.48;;;11.80;99.90;;;;;;5091974;28;20291;-82
2022/01/03 00:15:44;;;;;;;3.80;2.22;;;11.80;99.90;;;;;;5092197;28;20315;-82
2022/01/03 00:18:13;;;;;;;1.73;1.63;;;11.70;99.90;;;;;;5092043;28;20208;-82
2022/01/03 00:20:43;;;;;;;2.45;1.58;;;11.70;99.90;;;;;;5091779;28;20291;-82
2022/01/03 00:23:15;;;;;;;2.00;1.80;;;11.70;99.90;;;;;;5091745;28;20248;-82
2022/01/03 00:25:49;;;;;;;1.50;1.40;;;11.70;99.90;;;;;;5091802;28;20342;-82
2022/01/03 00:28:24;;;;;;;2.40;2.20;;;11.70;99.90;;;;;;5092102;28;20235;-82
2022/01/03 00:30:57;;;;;;;1.85;1.50;;;11.60;99.90;;;;;;5092009;28;20271;-82
2022/01/03 00:33:26;;;;;;;1.95;1.85;;;11.50;99.90;;;;;;5095593;28;20318;-82
2022/01/03 00:35:58;;;;;;;1.90;1.70;;;11.50;99.90;;;;;;5095600;28;20224;-82
2022/01/03 00:38:28;;;;;;;1.75;1.65;;;11.40;99.90;;;;;;5096180;28;20193;-82
2022/01/03 00:40:59;;;;;;;1.73;1.63;;;11.30;99.90;;;;;;5095322;28;20232;-87
2022/01/03 00:43:28;;;;;;;1.80;1.70;;;11.30;99.90;;;;;;5095831;28;20224;-87
2022/01/03 00:45:58;;;;;;;2.10;1.90;;;11.20;99.90;;;;;;5095658;28;20292;-87
2022/01/03 00:48:27;;;;;;;2.15;1.70;;;11.20;99.90;;;;;;5095748;28;20227;-87
2022/01/03 00:50:55;;;;;;;2.50;2.10;;;11.20;99.90;;;;;;5095323;28;20240;-88
2022/01/03 00:53:23;;;;;;;3.88;2.33;;;11.10;99.90;;;;;;5095548;28;20220;-82
2022/01/03 00:56:03;;;;;;;1.95;1.85;;;11.10;99.90;;;;;;5095542;28;20220;-82
2022/01/03 00:58:36;;;;;;;2.83;1.63;;;11.10;99.90;;;;;;5095577;28;20211;-82
2022/01/03 01:01:07;;;;;;;2.78;2.00;;;11.30;99.90;;;;;;5095601;28;20258;-87
2022/01/03 01:03:38;;;;;;;3.42;2.38;;;11.20;99.90;;;;;;5095258;28;20232;-87
2022/01/03 01:06:11;;;;;;;3.70;1.75;;;11.20;99.90;;;;;;5095687;28;20220;-87
2022/01/03 01:08:40;;;;;;;2.55;1.83;;;11.20;99.90;;;;;;5095503;28;20258;-82
2022/01/03 01:11:09;;;;;;;2.33;2.03;;;11.20;99.90;;;;;;5095364;28;20354;-82
2022/01/03 01:13:39;;;;;;;2.45;2.25;;;11.20;99.90;;;;;;5095752;28;20216;-82
2022/01/03 01:16:09;;;;;;;2.13;1.92;;;11.20;99.90;;;;;;5095421;28;20229;-82
2022/01/03 01:18:38;;;;;;;2.08;1.85;;;11.20;99.90;;;;;;5095023;28;20207;-82
2022/01/03 01:21:08;;;;;;;1.63;1.50;;;11.20;99.90;;;;;;5094860;28;20256;-81
2022/01/03 01:23:40;;;;;;;4.88;2.17;;;11.20;99.90;;;;;;5095160;28;20224;-82
2022/01/03 01:28:56;;;;;;;3.50;1.95;;;11.20;99.90;;;;;;5094415;28;20227;-82
2022/01/03 01:31:27;;;;;;;1.75;1.65;;;11.30;99.90;;;;;;5095293;28;20289;-82
2022/01/03 01:33:57;;;;;;;4.68;1.70;;;11.40;99.90;;;;;;5095034;28;20214;-82
2022/01/03 01:36:28;;;;;;;2.30;1.90;;;11.50;99.90;;;;;;5095267;28;20274;-82
2022/01/03 01:39:01;;;;;;;2.40;2.05;;;11.60;99.90;;;;;;5094143;28;20256;-82
2022/01/03 01:41:30;;;;;;;3.50;1.98;;;11.60;99.90;;;;;;5094668;28;20257;-89
2022/01/03 01:44:00;;;;;;;2.10;1.75;;;11.60;99.90;;;;;;5094190;28;20320;-87
2022/01/03 01:46:31;;;;;;;1.73;1.60;;;11.60;99.90;;;;;;5094853;28;20232;-82
2022/01/03 01:49:04;;;;;;;1.98;1.77;;;11.70;99.90;;;;;;5094320;28;20208;-82
2022/01/03 01:51:35;;;;;;;3.30;2.15;;;11.90;99.90;;;;;;5095320;28;20231;-82
2022/01/03 01:54:06;;;;;;;3.30;2.10;;;12.00;99.90;;;;;;5094736;28;20295;-87
2022/01/03 01:56:40;;;;;;;1.50;1.35;;;12.10;99.90;;;;;;5094296;28;20224;-82
2022/01/03 01:59:11;;;;;;;2.17;1.42;;;12.20;99.90;;;;;;5094091;28;20290;-82
2022/01/03 02:01:50;;;;;;;2.42;2.17;;;12.30;99.90;;;;;;5094502;28;20264;-82
2022/01/03 02:04:51;;;;;;;2.60;1.92;;;12.40;99.90;;;;;;5094314;28;20220;-82
2022/01/03 02:07:34;;;;;;;1.92;1.70;;;12.40;99.90;;;;;;5086822;28;20227;-84
2022/01/03 02:10:08;;;;;;;2.25;1.75;;;12.60;99.90;;;;;;5094077;28;20204;-84
2022/01/03 02:12:38;;;;;;;1.88;1.73;;;12.60;99.90;;;;;;5094356;28;20230;-84
2022/01/03 02:15:11;;;;;;;4.03;1.92;;;12.70;99.90;;;;;;5094488;28;20243;-84
2022/01/03 02:17:44;;;;;;;1.85;1.75;;;12.70;99.90;;;;;;5094337;28;20268;-84
2022/01/03 02:20:16;;;;;;;2.63;1.92;;;12.80;99.90;;;;;;5094006;28;20226;-84
2022/01/03 02:22:45;;;;;;;2.17;2.00;;;12.70;99.90;;;;;;5093770;28;20267;-84
2022/01/03 02:25:17;;;;;;;1.77;1.58;;;12.60;99.90;;;;;;5094028;28;20271;-84
2022/01/03 02:27:48;;;;;;;1.40;1.30;;;12.60;99.90;;;;;;5094096;28;20224;-84
2022/01/03 02:30:19;;;;;;;2.67;1.50;;;12.60;99.90;;;;;;5093538;28;20200;-84
2022/01/03 02:32:48;;;;;;;1.90;1.70;;;12.60;99.90;;;;;;5093835;28;20196;-84
2022/01/03 02:35:18;;;;;;;1.88;1.77;;;12.60;99.90;;;;;;5093915;28;20250;-82
2022/01/03 02:37:48;;;;;;;3.78;2.22;;;12.50;99.90;;;;;;5093629;28;20281;-82
2022/01/03 02:40:18;;;;;;;1.50;1.40;;;12.50;99.90;;;;;;5093632;28;20228;-82
2022/01/03 02:42:48;;;;;;;2.47;1.85;;;12.60;99.90;;;;;;5093471;28;20263;-82
2022/01/03 02:45:19;;;;;;;2.25;2.05;;;12.60;99.90;;;;;;5093647;28;20311;-87
2022/01/03 02:47:52;;;;;;;3.83;2.10;;;12.60;99.90;;;;;;5093362;28;20219;-86
2022/01/03 02:50:23;;;;;;;2.13;1.63;;;12.60;99.90;;;;;;5093247;28;20299;-86
2022/01/03 02:52:52;;;;;;;1.40;1.30;;;12.50;99.90;;;;;;5093640;28;20196;-86
2022/01/03 02:55:22;;;;;;;2.60;1.65;;;12.40;99.90;;;;;;5093588;28;20220;-86
2022/01/03 02:57:53;;;;;;;1.85;1.75;;;12.50;99.90;;;;;;5093426;28;20262;-86
2022/01/03 03:00:24;;;;;;;1.30;1.20;;;12.40;99.90;;;;;;5093462;28;20207;-87
2022/01/03 03:02:55;;;;;;;3.45;1.80;;;12.40;99.90;;;;;;5093604;28;20204;-81
2022/01/03 03:05:25;;;;;;;1.52;1.42;;;12.40;99.90;;;;;;5093048;28;20228;-81
2022/01/03 03:07:57;;;;;;;2.30;1.92;;;12.30;99.90;;;;;;5093423;28;20208;-86
2022/01/03 03:10:26;;;;;;;2.03;1.63;;;12.30;99.90;;;;;;5092717;28;20236;-82
2022/01/03 03:12:55;;;;;;;2.67;1.52;;;12.10;99.90;;;;;;5092965;28;20291;-82
2022/01/03 03:15:26;;;;;;;1.95;1.80;;;12.10;99.90;;;;;;5092699;28;20244;-82
2022/01/03 03:17:55;;;;;;;1.58;1.48;;;12.10;99.90;;;;;;5092924;28;20214;-82
2022/01/03 03:20:26;;;;;;;2.10;1.80;;;12.10;99.90;;;;;;5092826;28;20234;-82
2022/01/03 03:22:56;;;;;;;2.03;1.83;;;12.10;99.90;;;;;;5093237;28;20216;-82
2022/01/03 03:25:27;;;;;;;1.90;1.70;;;12.10;99.90;;;;;;5092527;28;20288;-82
2022/01/03 03:27:58;;;;;;;1.45;1.38;;;12.10;99.90;;;;;;5092932;28;20271;-82
2022/01/03 03:30:29;;;;;;;1.73;1.38;;;12.10;99.90;;;;;;5092501;28;20303;-82
2022/01/03 03:33:02;;;;;;;2.15;1.88;;;12.10;99.90;;;;;;5093323;28;20204;-84
2022/01/03 03:35:32;;;;;;;2.78;1.63;;;12.00;99.90;;;;;;5092767;28;20224;-84
2022/01/03 03:38:00;;;;;;;1.73;1.63;;;12.00;99.90;;;;;;5093022;28;20220;-84
2022/01/03 03:40:29;;;;;;;2.20;1.80;;;12.00;99.90;;;;;;5092254;28;20227;-84
2022/01/03 03:42:57;;;;;;;2.33;1.75;;;12.00;99.90;;;;;;5092938;28;20329;-84
2022/01/03 03:45:27;;;;;;;1.77;1.67;;;11.90;99.90;;;;;;5092470;28;20311;-89
2022/01/03 03:47:57;;;;;;;1.80;1.70;;;11.90;99.90;;;;;;5092720;28;20249;-89
2022/01/03 03:50:25;;;;;;;1.52;1.30;;;11.80;99.90;;;;;;5091746;28;20230;-89
2022/01/03 03:52:56;;;;;;;3.30;1.80;;;11.80;99.90;;;;;;5092655;28;20291;-89
2022/01/03 03:55:24;;;;;;;1.83;1.73;;;11.80;99.90;;;;;;5092626;28;20284;-84
2022/01/03 03:57:53;;;;;;;2.00;1.80;;;11.70;99.90;;;;;;5093030;28;20235;-84
2022/01/03 04:00:21;;;;;;;2.58;2.08;;;11.70;99.90;;;;;;5092134;28;20231;-84
2022/01/03 04:02:52;;;;;;;1.92;1.80;;;11.70;99.90;;;;;;5092113;28;20264;-84
2022/01/03 04:05:21;;;;;;;3.38;2.05;;;11.60;99.90;;;;;;5092464;28;20506;-89
2022/01/03 04:07:50;;;;;;;1.83;1.73;;;11.50;99.90;;;;;;5092300;28;20287;-89
2022/01/03 04:10:19;;;;;;;3.75;1.77;;;11.50;99.90;;;;;;5092436;28;20228;-89
2022/01/03 04:12:48;;;;;;;2.10;1.90;;;11.50;99.90;;;;;;5092372;28;20295;-89
2022/01/03 04:15:16;;;;;;;2.33;1.63;;;11.60;99.90;;;;;;5092504;28;20258;-89
2022/01/03 04:17:45;;;;;;;2.28;1.60;;;11.60;99.90;;;;;;5092442;28;20239;-89
2022/01/03 04:20:15;;;;;;;1.70;1.60;;;11.60;99.90;;;;;;5092365;28;20272;-89
2022/01/03 04:22:44;;;;;;;4.32;2.30;;;11.60;99.90;;;;;;5092523;28;20307;-90
2022/01/03 04:25:14;;;;;;;2.15;1.65;;;11.50;99.90;;;;;;5092624;28;20312;-90
2022/01/03 04:27:44;;;;;;;1.90;1.80;;;11.50;99.90;;;;;;5092085;28;20295;-90
2022/01/03 04:30:13;;;;;;;1.88;1.60;;;11.60;99.90;;;;;;5091417;28;20235;-89
2022/01/03 04:32:41;;;;;;;1.67;1.58;;;11.50;99.90;;;;;;5092209;28;20254;-89
2022/01/03 04:35:10;;;;;;;1.77;1.45;;;11.50;99.90;;;;;;5092484;28;20252;-89
2022/01/03 04:37:38;;;;;;;4.03;1.67;;;11.50;99.90;;;;;;5092309;28;20208;-89
2022/01/03 04:40:07;;;;;;;3.45;1.90;;;11.50;99.90;;;;;;5091533;28;20219;-89
2022/01/03 04:42:36;;;;;;;1.58;1.48;;;11.50;99.90;;;;;;5092208;28;20505;-90
2022/01/03 04:45:07;;;;;;;1.42;1.33;;;11.50;99.90;;;;;;5092039;28;20236;-89
2022/01/03 04:47:36;;;;;;;2.25;1.63;;;11.60;99.90;;;;;;5091832;28;20234;-89
2022/01/03 04:50:05;;;;;;;2.15;1.70;;;11.70;99.90;;;;;;5091866;28;20299;-89
2022/01/03 04:52:33;;;;;;;1.58;1.48;;;11.70;99.90;;;;;;5091963;28;20319;-89
2022/01/03 04:55:02;;;;;;;4.20;1.77;;;11.70;99.90;;;;;;5091918;28;20284;-89
2022/01/03 04:57:31;;;;;;;1.80;1.67;;;11.70;99.90;;;;;;5091697;28;20208;-84
2022/01/03 04:59:59;;;;;;;1.73;1.60;;;11.70;99.90;;;;;;5091346;28;20224;-84
2022/01/03 05:02:29;;;;;;;1.45;1.35;;;11.70;99.90;;;;;;5092097;28;20231;-84
2022/01/03 05:04:58;;;;;;;1.30;1.15;;;11.70;99.90;;;;;;5091748;28;20220;-84
2022/01/03 05:07:26;;;;;;;1.60;1.50;;;11.90;99.90;;;;;;5091908;28;20224;-84
2022/01/03 05:09:54;;;;;;;1.50;1.40;;;12.00;99.90;;;;;;5091252;28;20288;-83
2022/01/03 05:12:23;;;;;;;5.03;1.85;;;12.00;99.90;;;;;;5091858;28;20231;-83
2022/01/03 05:14:53;;;;;;;1.45;1.35;;;12.10;99.90;;;;;;5091918;28;20267;-83
2022/01/03 05:17:21;;;;;;;1.50;1.40;;;12.10;99.90;;;;;;5092182;28;20239;-88
2022/01/03 05:19:51;;;;;;;1.70;1.40;;;12.10;99.90;;;;;;5094403;28;20239;-88
2022/01/03 05:22:19;;;;;;;3.25;1.80;;;12.10;99.90;;;;;;5095574;28;20212;-88
2022/01/03 05:24:47;;;;;;;1.95;1.40;;;12.10;99.90;;;;;;5095716;28;20220;-88
2022/01/03 05:27:16;;;;;;;1.40;1.27;;;12.10;99.90;;;;;;5095282;28;20295;-88
2022/01/03 05:29:44;;;;;;;1.67;1.40;;;12.10;99.90;;;;;;5095031;28;20288;-88
2022/01/03 05:32:13;;;;;;;1.30;1.20;;;12.10;99.90;;;;;;5095208;28;20484;-88
2022/01/03 05:34:41;;;;;;;3.00;1.60;;;12.10;99.90;;;;;;5095029;28;20296;-88
2022/01/03 05:37:11;;;;;;;1.70;1.60;;;12.10;99.90;;;;;;5095162;28;20255;-88
2022/01/03 05:39:40;;;;;;;1.30;1.20;;;12.10;99.90;;;;;;5094676;28;20204;-83
2022/01/03 05:42:09;;;;;;;1.17;1.08;;;12.00;99.90;;;;;;5095111;28;20291;-83
2022/01/03 05:44:37;;;;;;;1.63;1.50;;;12.10;99.90;;;;;;5094823;28;20236;-83
2022/01/03 05:47:06;;;;;;;0.90;0.85;;;12.10;99.90;;;;;;5094285;28;20232;-82
2022/01/03 05:49:34;;;;;;;1.48;1.23;;;12.10;99.90;;;;;;5094275;28;20296;-88
2022/01/03 05:52:05;;;;;;;1.88;1.40;;;12.20;99.90;;;;;;5094874;28;20230;-87
2022/01/03 05:54:35;;;;;;;1.60;1.42;;;12.20;99.90;;;;;;5094926;28;20200;-83
2022/01/03 05:57:03;;;;;;;1.42;1.33;;;12.20;99.90;;;;;;5094688;28;20258;-83
2022/01/03 05:59:32;;;;;;;2.42;1.35;;;12.20;99.90;;;;;;5094437;28;20235;-82
2022/01/03 06:02:00;;;;;;;1.50;1.40;;;12.30;99.90;;;;;;5094498;28;20232;-82
2022/01/03 06:04:41;;;;;;;2.78;1.30;;;12.20;99.90;;;;;;5094679;28;20235;-87
2022/01/03 06:07:13;;;;;;;1.40;1.30;;;12.20;99.90;;;;;;5094777;28;20244;-88
2022/01/03 06:09:43;;;;;;;3.83;1.30;;;12.20;99.90;;;;;;5094006;28;20216;-82
2022/01/03 06:12:11;;;;;;;1.15;1.05;;;12.20;99.90;;;;;;5094459;28;20220;-82
2022/01/03 06:14:40;;;;;;;1.58;1.48;;;12.20;99.90;;;;;;5094191;28;20224;-82
2022/01/03 06:17:08;;;;;;;1.25;1.20;;;12.20;99.90;;;;;;5093863;28;20251;-82
2022/01/03 06:19:37;;;;;;;1.40;1.30;;;12.20;99.90;;;;;;5094151;28;20200;-82
2022/01/03 06:22:11;;;;;;;5.10;1.50;;;12.10;99.90;;;;;;5094387;28;20232;-82
2022/01/03 06:24:41;;;;;;;1.77;1.52;;;12.20;99.90;;;;;;5094038;28;20296;-82
2022/01/03 06:27:11;;;;;;;1.40;1.30;;;12.20;99.90;;;;;;5093944;28;20228;-82
2022/01/03 06:29:39;;;;;;;1.40;1.30;;;12.20;99.90;;;;;;5093529;28;20223;-82
2022/01/03 06:32:08;;;;;;;4.15;1.50;;;12.10;99.90;;;;;;5093951;28;20224;-82
2022/01/03 06:34:36;;;;;;;1.60;1.48;;;12.00;99.90;;;;;;5093879;28;20223;-82
2022/01/03 06:37:04;;;;;;;14.35;1.92;;;12.00;99.90;;;;;;5093576;28;20221;-82
2022/01/03 06:39:33;;;;;;;1.40;1.30;;;11.90;99.90;;;;;;5093290;28;20204;-82
2022/01/03 06:42:01;;;;;;;1.55;1.45;;;11.90;99.90;;;;;;5093998;28;20261;-82
2022/01/03 06:44:31;;;;;;;1.38;1.13;;;11.90;99.90;;;;;;5094126;28;20196;-87
2022/01/03 06:47:00;;;;;;;3.17;1.48;;;11.80;99.90;;;;;;5093551;28;20228;-87
2022/01/03 06:49:29;;;;;;;1.30;1.20;;;11.80;99.90;;;;;;5093135;28;20208;-87
2022/01/03 06:51:57;;;;;;;1.30;1.20;;;11.80;99.90;;;;;;5093552;28;20280;-86
2022/01/03 06:54:26;;;;;;;1.95;1.83;;;11.70;99.90;;;;;;5093901;28;20239;-87
2022/01/03 06:56:55;;;;;;;1.70;1.55;;;11.70;99.90;;;;;;5093733;28;20230;-87
2022/01/03 06:59:28;;;;;;;1.55;1.45;;;11.70;99.90;;;;;;5093399;28;20231;-87
2022/01/03 07:01:58;;;;;;;1.17;1.05;;;11.70;99.90;;;;;;5093627;28;20231;-87
2022/01/03 07:04:26;;;;;;;1.13;1.10;;;11.70;99.90;;;;;;5093197;28;20208;-87
2022/01/03 07:06:56;;;;;;;2.10;1.35;;;11.70;99.90;;;;;;5093303;28;20231;-87
2022/01/03 07:09:24;;;;;;;3.05;1.92;;;11.70;99.90;;;;;;5093129;28;20232;-87
2022/01/03 07:11:52;;;;;;;2.00;1.60;;;11.80;99.90;;;;;;5093495;28;20204;-87
2022/01/03 07:19:56;;;;;;;1.50;1.30;;;11.80;99.90;;;;;;5092788;28;20207;-87
2022/01/03 07:22:25;;;;;;;1.45;1.35;;;11.90;99.90;;;;;;5093294;28;20274;-87
2022/01/03 07:24:54;;;;;;;4.15;1.60;;;11.90;99.90;;;;;;5092942;28;20212;-88
2022/01/03 07:27:25;;;;;;;2.03;1.33;;;11.90;99.90;;;;;;5092645;28;20313;-87
2022/01/03 07:29:54;;;;;;;1.30;1.20;;;12.00;99.90;;;;;;5092600;28;20203;-87
2022/01/03 07:32:24;;;;;;;1.60;1.30;;;12.00;99.90;;;;;;5093184;28;20283;-87
2022/01/03 07:34:52;;;;;;;1.90;1.50;;;12.10;99.90;;;;;;5093155;28;20213;-87
2022/01/03 07:37:20;;;;;;;1.40;1.30;;;12.00;99.90;;;;;;5093110;28;20193;-87
2022/01/03 07:39:49;;;;;;;1.45;1.05;;;12.00;99.90;;;;;;5092052;28;20204;-87
2022/01/03 07:42:17;;;;;;;2.80;1.60;;;12.00;99.90;;;;;;5091851;28;20243;-87
2022/01/03 07:44:45;;;;;;;0.95;0.93;;;11.90;99.90;;;;;;5092859;28;20208;-87
2022/01/03 07:47:14;;;;;;;1.08;1.08;;;11.90;99.90;;;;;;5092595;28;20334;-87
2022/01/03 07:49:44;;;;;;;3.42;1.70;;;11.80;99.90;;;;;;5092206;28;20214;-87
2022/01/03 07:52:12;;;;;;;1.50;1.27;;;11.80;99.90;;;;;;5092636;28;20208;-87
2022/01/03 07:54:41;;;;;;;3.22;1.77;;;11.70;99.90;;;;;;5092814;28;20208;-87
2022/01/03 07:57:09;;;;;;;1.92;1.67;;;11.70;99.90;;;;;;5092488;28;20227;-87
2022/01/03 07:59:38;;;;;;;6.80;1.73;;;11.60;99.90;;;;;;5092369;28;20196;-87
2022/01/03 08:02:06;;;;;;;1.75;1.58;;;11.60;99.90;;;;;;5092815;28;20200;-87
2022/01/03 08:04:35;;;;;;;3.63;1.90;;;11.60;99.90;;;;;;5092839;28;20234;-87
2022/01/03 08:07:06;;;;;;;2.45;1.30;;;11.50;99.90;;;;;;5092092;28;20220;-86
2022/01/03 08:09:39;;;;;;;1.50;1.23;;;11.50;99.90;;;;;;5098617;28;20219;-92
2022/01/03 08:12:09;;;;;;;1.40;1.30;;;11.50;99.90;;;;;;5114312;28;20219;-89
2022/01/03 08:14:37;;;;;;;3.00;1.33;;;11.50;99.90;;;;;;5095650;28;20193;-88
2022/01/03 08:17:06;;;;;;;1.63;1.45;;;11.50;99.90;;;;;;5110758;28;20235;-92
2022/01/03 08:19:37;;;;;;;1.80;1.58;;;11.40;99.90;;;;;;5131047;28;20209;-92
2022/01/03 08:22:10;;;;;;;1.42;1.33;;;11.40;99.90;;;;;;5112001;28;20204;-86
2022/01/03 08:24:38;;;;;;;3.10;1.73;;;11.40;99.90;;;;;;5107237;28;20198;-87
2022/01/03 08:27:07;;;;;;;1.88;1.58;;;11.50;99.90;;;;;;5093159;28;20311;-84
2022/01/03 08:29:36;;;;;;;2.58;1.48;;;11.50;99.90;;;;;;5094271;28;20271;-87
2022/01/03 08:32:05;;;;;;;1.42;1.33;;;11.50;99.90;;;;;;5104240;28;20235;-84
2022/01/03 08:34:33;;;;;;;1.55;1.13;;;11.50;99.90;;;;;;5113145;28;20298;-83
2022/01/03 08:37:03;;;;;;;2.20;1.55;;;11.60;99.90;;;;;;5092724;28;20231;-85
2022/01/03 08:39:33;;;;;;;1.75;1.55;;;11.60;99.90;;;;;;5092570;28;20258;-85
2022/01/03 08:42:01;;;;;;;2.47;1.65;;;11.60;99.90;;;;;;5109670;28;20192;-85
2022/01/03 08:44:30;;;;;;;4.75;1.60;;;11.70;99.90;;;;;;5106621;28;20192;-84
2022/01/03 08:46:58;;;;;;;1.15;1.10;;;11.80;99.90;;;;;;5097167;28;20208;-84
2022/01/03 08:49:27;;;;;;;1.92;1.58;;;11.80;99.90;;;;;;5110955;28;20221;-84
2022/01/03 08:51:55;;;;;;;1.20;1.08;;;11.90;99.90;;;;;;5106740;28;20264;-83
2022/01/03 08:54:24;;;;;;;1.40;1.33;;;12.00;99.90;;;;;;5117385;28;20290;-83
2022/01/03 08:56:54;;;;;;;3.85;1.23;;;12.00;99.90;;;;;;5117090;28;20232;-82
2022/01/03 08:59:22;;;;;;;1.30;1.20;;;12.10;99.90;;;;;;5116558;28;20251;-83
2022/01/03 09:01:51;;;;;;;1.30;1.20;;;12.20;99.90;;;;;;5097484;28;20193;-85
2022/01/03 09:04:20;;;;;;;1.23;1.20;;;12.20;99.90;;;;;;5096176;28;20254;-87
2022/01/03 09:06:51;;;;;;;2.70;1.25;;;12.20;99.90;;;;;;5112912;28;20211;-83
2022/01/03 09:09:27;;;;;;;1.27;1.17;;;12.30;99.90;;;;;;5115234;28;20206;-83
2022/01/03 09:11:57;;;;;;;1.67;1.40;;;12.30;99.90;;;;;;5116519;28;20211;-84
2022/01/03 09:14:26;;;;;;;1.30;1.20;;;12.30;99.90;;;;;;5116059;28;20261;-84
2022/01/03 09:16:55;;;;;;;1.73;1.40;;;12.40;99.90;;;;;;5116187;28;20260;-85
2022/01/03 09:19:23;;;;;;;2.15;1.50;;;12.40;99.90;;;;;;5098715;28;20201;-84
2022/01/03 09:21:58;;;;;;;3.13;1.70;;;12.40;99.90;;;;;;5097570;28;20299;-84
2022/01/03 09:24:31;;;;;;;1.17;1.08;;;12.50;99.90;;;;;;5112935;27;20289;-86
2022/01/03 09:29:53;;;;;;;3.25;1.40;;;12.50;99.90;;;;;;5106603;28;20241;-84
2022/01/03 09:32:23;;;;;;;1.40;1.30;;;12.50;99.90;;;;;;5116503;28;20358;-83
2022/01/03 09:34:51;;;;;;;1.00;1.00;;;12.50;99.90;;;;;;5116748;28;20196;-84
2022/01/03 09:37:21;;;;;;;1.35;1.25;;;12.60;99.90;;;;;;5115755;28;20196;-85
2022/01/03 09:39:50;;;;;;;1.38;1.25;;;12.60;99.90;;;;;;5115681;27;20195;-85
2022/01/03 09:42:24;;;;;;;2.10;1.67;;;12.70;99.90;;;;;;5114905;28;20238;-85
2022/01/03 09:44:53;;;;;;;1.35;1.25;;;12.70;99.90;;;;;;5115269;28;20229;-85
2022/01/03 09:47:22;;;;;;;3.33;1.45;;;12.70;99.90;;;;;;5115598;28;20219;-85
2022/01/03 09:49:51;;;;;;;0.90;0.90;;;12.70;99.90;;;;;;5114748;28;20204;-89
2022/01/03 09:52:23;;;;;;;1.60;1.30;;;12.70;99.90;;;;;;5114663;28;20266;-88
2022/01/03 09:54:53;;;;;;;2.88;1.30;;;12.70;99.90;;;;;;5115330;28;20234;-89
2022/01/03 09:57:24;;;;;;;2.15;1.05;;;12.70;99.90;;;;;;5115123;28;20220;-89
2022/01/03 09:59:53;;;;;;;1.23;1.13;;;12.70;99.90;;;;;;5114978;27;20215;-89
2022/01/03 10:02:28;;;;;;;1.75;1.42;;;12.70;99.90;;;;;;5115240;28;20214;-88
2022/01/03 10:04:59;;;;;;;2.13;1.63;;;12.70;99.90;;;;;;5114506;27;20195;-89
2022/01/03 10:07:29;;;;;;;1.95;1.27;;;12.80;99.90;;;;;;5114810;28;20220;-88
2022/01/03 10:09:59;;;;;;;2.80;1.48;;;12.80;99.90;;;;;;5115103;28;20207;-89
2022/01/03 10:12:29;;;;;;;2.80;1.40;;;13.00;99.90;;;;;;5115298;28;20204;-89
2022/01/03 10:14:58;;;;;;;10.43;0.88;;;13.10;99.90;;;;;;5114815;28;20220;-85
2022/01/03 10:17:27;;;;;;;1.13;1.02;;;13.00;99.90;;;;;;5114632;28;20228;-89
2022/01/03 10:20:00;;;;;;;1.13;1.05;;;13.00;99.90;;;;;;5114245;28;20208;-89
2022/01/03 10:22:30;;;;;;;0.80;0.80;;;13.10;99.90;;;;;;5114449;28;20239;-89
2022/01/03 10:25:01;;;;;;;3.75;1.15;;;13.10;99.90;;;;;;5115049;28;20238;-89
2022/01/03 10:31:14;;;;;;;0.82;0.82;;;13.20;99.90;;;;;;5130012;27;20605;-90
2022/01/03 10:33:43;;;;;;;2.10;1.10;;;13.50;99.90;;;;;;5131293;28;20254;-89
2022/01/03 10:36:28;;;;;;;1.25;1.15;;;13.60;99.90;;;;;;5130829;27;20219;-89
2022/01/03 10:38:58;;;;;;;1.25;1.15;;;13.80;99.90;;;;;;5130223;28;20290;-89
2022/01/03 10:41:27;;;;;;;3.47;1.50;;;14.20;99.90;;;;;;5130681;27;20215;-90
2022/01/03 10:43:57;;;;;;;1.60;1.23;;;14.70;99.90;;;;;;5130776;27;20207;-89
2022/01/03 10:46:29;;;;;;;2.33;1.10;;;14.80;99.90;;;;;;5130597;27;20298;-89
2022/01/03 10:49:08;;;;;;;1.17;1.08;;;14.90;99.90;;;;;;5130038;27;20263;-90
2022/01/03 10:51:37;;;;;;;1.85;1.35;;;15.00;99.90;;;;;;5129618;27;20270;-90
2022/01/03 10:54:09;;;;;;;1.15;1.02;;;15.30;99.90;;;;;;5130527;28;20262;-85
2022/01/03 10:56:39;;;;;;;1.30;1.20;;;15.50;99.90;;;;;;5130133;28;20314;-85
2022/01/03 10:59:22;;;;;;;1.02;1.02;;;15.70;99.90;;;;;;5129589;27;20199;-85
2022/01/03 11:02:02;;;;;;;1.20;1.05;;;15.50;99.90;;;;;;5130246;27;20225;-84
2022/01/03 11:04:36;;;;;;;1.92;1.27;;;15.60;99.90;;;;;;5130439;27;20302;-85
2022/01/03 11:13:07;;;;;;;1.45;1.35;;;15.70;99.90;;;;;;5130379;28;20223;-84
2022/01/03 11:15:36;;;;;;;1.63;1.20;;;15.80;99.90;;;;;;5130045;28;20280;-84
2022/01/03 11:18:28;;;;;;;1.30;1.30;;;15.50;99.90;;;;;;5129915;27;20231;-84
2022/01/03 11:21:08;;;;;;;3.05;1.67;;;15.50;99.90;;;;;;5124126;27;20227;-84
2022/01/03 11:23:37;;;;;;;1.10;1.02;;;15.50;99.90;;;;;;5129806;27;20207;-84
2022/01/03 11:26:07;;;;;;;0.95;0.82;;;15.80;99.90;;;;;;5129343;27;20282;-85
2022/01/03 11:28:35;;;;;;;1.33;1.00;;;15.50;99.90;;;;;;5129603;27;20211;-85
2022/01/03 11:31:04;;;;;;;1.00;1.00;;;15.00;99.90;;;;;;5129143;27;20246;-85
2022/01/03 11:33:35;;;;;;;2.17;1.02;;;14.90;99.90;;;;;;5129651;27;20274;-85
2022/01/03 11:36:25;;;;;;;0.93;0.93;;;15.20;99.90;;;;;;5132301;27;20291;-88
2022/01/03 11:38:57;;;;;;;1.67;1.17;;;14.90;99.90;;;;;;5132351;27;20211;-88
2022/01/03 11:41:25;;;;;;;1.17;1.00;;;14.40;99.90;;;;;;5123404;28;20233;-88
2022/01/03 11:43:55;;;;;;;1.08;0.98;;;14.40;99.90;;;;;;5120408;27;20219;-87
2022/01/03 11:46:24;;;;;;;0.98;0.88;;;14.00;99.90;;;;;;5119661;28;20227;-88
2022/01/03 11:48:54;;;;;;;1.42;1.10;;;13.80;99.90;;;;;;5115933;28;20207;-88
2022/01/03 11:51:23;;;;;;;0.57;0.57;;;13.90;99.90;;;;;;5116028;27;20266;-87
2022/01/03 11:53:52;;;;;;;0.80;0.80;;;14.10;99.90;;;;;;5115927;28;20224;-87
2022/01/03 11:56:22;;;;;;;1.10;1.05;;;14.10;99.90;;;;;;5115781;28;20302;-87
2022/01/03 11:58:59;;;;;;;1.05;0.85;;;14.20;99.90;;;;;;5114819;28;20227;-87
2022/01/03 12:04:26;;;;;;;0.80;0.80;;;14.90;99.90;;;;;;5115562;28;20212;-87
2022/01/03 12:07:05;;;;;;;1.65;1.00;;;14.60;99.90;;;;;;5115512;28;20223;-85
2022/01/03 12:09:37;;;;;;;0.60;0.60;;;14.90;99.90;;;;;;5114765;28;20238;-87
2022/01/03 12:12:07;;;;;;;1.65;1.02;;;15.20;99.90;;;;;;5115158;28;20211;-87
2022/01/03 12:14:43;;;;;;;0.88;0.88;;;15.20;99.90;;;;;;5115195;27;20204;-88
2022/01/03 12:17:13;;;;;;;7.60;1.20;;;14.90;99.90;;;;;;5115077;28;20227;-88
2022/01/03 12:19:45;;;;;;;0.90;0.70;;;15.00;99.90;;;;;;5114659;28;20203;-88
2022/01/03 12:22:17;;;;;;;0.75;0.75;;;15.00;99.90;;;;;;5115301;28;20211;-87
2022/01/03 12:24:49;;;;;;;0.98;0.82;;;14.50;99.90;;;;;;5115118;28;20191;-87
2022/01/03 12:27:43;;;;;;;1.02;0.93;;;14.40;99.90;;;;;;5114857;28;20231;-87
2022/01/03 12:30:23;;;;;;;1.45;1.10;;;14.50;99.90;;;;;;5114004;28;20216;-87
2022/01/03 12:33:17;;;;;;;1.20;1.10;;;14.60;99.90;;;;;;5114923;27;20208;-87
2022/01/03 12:35:49;;;;;;;1.10;0.75;;;14.60;99.90;;;;;;5114804;28;20231;-87
2022/01/03 12:38:29;;;;;;;1.20;0.98;;;14.80;99.90;;;;;;5114832;28;20234;-85
2022/01/03 12:41:03;;;;;;;1.17;1.00;;;15.20;99.90;;;;;;5114090;28;20199;-85
2022/01/03 12:43:47;;;;;;;1.20;1.10;;;15.40;99.90;;;;;;5114768;28;20296;-84
2022/01/03 12:46:18;;;;;;;1.27;1.05;;;15.50;99.90;;;;;;5114556;28;20307;-84
2022/01/03 12:48:55;;;;;;;1.67;1.40;;;15.60;99.90;;;;;;5114299;28;20242;-84
2022/01/03 12:51:35;;;;;;;1.58;1.23;;;15.50;99.90;;;;;;5113867;27;20224;-88
2022/01/03 12:54:07;;;;;;;1.63;1.30;;;15.20;99.90;;;;;;5113576;27;20204;-88
2022/01/03 12:56:37;;;;;;;1.77;1.30;;;15.40;99.90;;;;;;5114654;28;20291;-85
2022/01/03 12:59:14;;;;;;;0.70;0.70;;;15.50;99.90;;;;;;5113647;27;20207;-85
2022/01/03 13:01:43;;;;;;;1.50;1.17;;;15.60;99.90;;;;;;5114147;28;20188;-85
2022/01/03 13:04:26;;;;;;;1.13;1.02;;;15.60;99.90;;;;;;5113779;28;20199;-84
2022/01/03 13:07:05;;;;;;;0.82;0.77;;;15.70;99.90;;;;;;5114178;28;20247;-85
2022/01/03 13:09:38;;;;;;;1.17;1.08;;;15.10;99.90;;;;;;5113786;27;20203;-85
2022/01/03 13:12:07;;;;;;;1.10;0.90;;;14.90;99.90;;;;;;5113575;28;20284;-85
2022/01/03 13:14:35;;;;;;;0.70;0.70;;;15.00;99.90;;;;;;5113995;27;20212;-85
2022/01/03 13:17:06;;;;;;;1.17;0.95;;;14.80;99.90;;;;;;5113848;27;20219;-85
2022/01/03 13:19:36;;;;;;;1.00;1.00;;;14.60;99.90;;;;;;5113443;28;20210;-85
2022/01/03 13:22:10;;;;;;;1.00;1.00;;;14.60;99.90;;;;;;5114026;28;20210;-85
2022/01/03 13:24:41;;;;;;;3.10;1.55;;;14.60;99.90;;;;;;5113439;28;20267;-84
2022/01/03 13:27:11;;;;;;;2.00;1.23;;;14.60;99.90;;;;;;5113724;28;20227;-85
2022/01/03 13:29:45;;;;;;;1.00;1.00;;;14.70;99.90;;;;;;5113310;28;20207;-84